Almena, Kansas
Current Conditions -  °F | °C
As of 4:53 AM on Thursday 18 Dec 2014 (Local Time) from KHLC Reporting Station
Haze Haze  
Wind Chill: 26°   Ceiling: 300
Heat Index: 26°   Visibility: 6mi
Dew Point: 24°   Wind: 3mph
Humidity: 92%   Direction: 90°E
Pressure: 30.13"   Gusts: NA
Location:  39.89°N, 99.71°W
Report Text: KHLC 181053Z AUTO 09003KT 6SM BR OVC003 M03/M04 A3013 RMK AO2 SLP225 T10331044
Loading
Personal Weather Stations






























Interactive Weather Map New forecast layout! Learn more

10-Day Weather Forecast

Advertisements
Track Severe Weather on mobile